< < Back
Terminal Aerodrome Forecast


Current Version              Previous Versions:   1  2  3  4  5  6  7  8  9  

Terminal Aerodrome Forecast

059
FTUS42 KFFC 020500 RRA
TAFFTY
TAF
KFTY 020543Z 0206/0306 00000KT P6SM SCT150 BKN250
     FM021400 VRB03KT P6SM SCT035 SCT150
     FM021800 27005KT P6SM SCT050 SCT150 PROB30 0219/0223 VRB15G30KT
      5SM TSRA BKN045CB
     FM030100 00000KT P6SM FEW050 BKN120=

Latest METAR

312
SAUS70 KWBC 021700 RRA
MTRFTY
METAR KFTY 021653Z 20003KT 10SM FEW040 SCT060 31/22 A3011 RMK AO2 SLP184
T03060217


USA.gov is the U.S. government's official web portal to all federal, state and local government web resources and services.